Time;durP1;ratioP1;P1;durP2;ratioP2;P2;SDS_P1;SDS_P2;PMS_P1;PMS_P2;Temp;Humidity;BMP_temperature;BMP_pressure;BME280_temperature;BME280_humidity;BME280_pressure;Samples;Min_cycle;Max_cycle;Signal;HPM_P1;HPM_P2
2022/06/28 00:05:00;;;;;;;2.33;0.82;;;;;;;19.00;71.17;97148.50;10379654;28;20500;-22
2022/06/28 00:10:01;;;;;;;4.38;1.10;;;;;;;18.95;70.99;97142.53;10368908;28;20504;-22
2022/06/28 00:20:22;;;;;;;2.13;1.10;;;;;;;18.95;70.50;97155.22;10366701;28;20281;-23
2022/06/28 00:25:23;;;;;;;2.45;0.80;;;;;;;18.95;70.58;97156.09;10366597;28;20034;-23
2022/06/28 00:30:23;;;;;;;1.77;1.00;;;;;;;18.92;70.55;97156.06;10367221;28;20114;-22
2022/06/28 00:35:24;;;;;;;5.63;1.00;;;;;;;18.94;70.31;97173.81;10371207;28;20523;-22
2022/06/28 00:40:24;;;;;;;1.52;0.75;;;;;;;18.92;70.35;97152.69;10381323;28;20293;-22
2022/06/28 00:45:25;;;;;;;0.88;0.82;;;;;;;18.89;70.42;97175.47;10366196;28;20032;-23
2022/06/28 00:50:26;;;;;;;0.80;0.80;;;;;;;18.86;70.15;97185.63;10366648;28;20044;-23
2022/06/28 00:55:27;;;;;;;2.35;1.00;;;;;;;18.83;70.27;97180.53;10372582;28;20420;-22
2022/06/28 01:00:30;;;;;;;1.10;1.00;;;;;;;18.91;69.66;97178.91;10366155;28;20038;-24
2022/06/28 01:05:31;;;;;;;5.35;1.33;;;;;;;18.87;69.68;97172.09;10371681;28;20034;-22
2022/06/28 01:10:32;;;;;;;1.13;1.02;;;;;;;18.77;69.59;97175.41;10364661;28;20083;-26
2022/06/28 01:15:34;;;;;;;1.02;0.80;;;;;;;18.84;69.52;97187.31;10373239;28;20026;-22
2022/06/28 01:20:39;;;;;;;3.47;1.02;;;;;;;18.85;69.36;97149.25;10364794;28;20029;-22
2022/06/28 01:25:54;;;;;;;5.30;1.10;;;;;;;18.86;69.10;97139.94;10364413;28;20114;-21
2022/06/28 01:31:01;;;;;;;1.33;0.90;;;;;;;18.79;69.42;97144.16;10367810;28;20030;-23
2022/06/28 01:36:07;;;;;;;2.78;0.80;;;;;;;18.84;69.31;97151.78;10375600;28;20620;-22
2022/06/28 01:41:08;;;;;;;2.53;0.80;;;;;;;18.78;69.60;97142.47;10371759;28;20081;-23
2022/06/28 01:46:09;;;;;;;1.70;0.77;;;;;;;18.79;69.84;97161.06;10372026;28;20029;-23
2022/06/28 01:51:27;;;;;;;1.73;0.70;;;;;;;18.76;69.88;97156.81;10380879;28;20064;-22
2022/06/28 01:56:28;;;;;;;1.33;0.60;;;;;;;18.84;69.32;97134.03;10385676;28;20033;-23
2022/06/28 02:01:37;;;;;;;2.45;0.93;;;;;;;18.76;69.58;97128.06;10386355;28;20034;-23
2022/06/28 02:06:38;;;;;;;2.38;0.73;;;;;;;18.74;69.90;97144.97;10391532;28;20076;-23
2022/06/28 02:11:43;;;;;;;2.20;0.80;;;;;;;18.74;69.74;97150.06;10370582;28;20520;-23
2022/06/28 02:16:45;;;;;;;3.42;0.80;;;;;;;18.81;69.70;97141.59;10371012;28;20034;-22
2022/06/28 02:21:46;;;;;;;4.25;1.25;;;;;;;18.78;69.68;97161.91;10386410;28;20080;-22
2022/06/28 02:26:46;;;;;;;1.60;0.97;;;;;;;18.76;69.77;97153.44;10368902;28;20041;-22
2022/06/28 02:31:47;;;;;;;2.77;0.80;;;;;;;18.77;69.48;97142.44;10371161;28;20315;-24
2022/06/28 02:42:06;;;;;;;2.60;0.80;;;;;;;18.71;69.08;97124.66;10368723;28;20121;-23
2022/06/28 02:47:06;;;;;;;2.65;0.80;;;;;;;18.72;69.25;97136.47;10368604;28;20120;-23
2022/06/28 02:52:07;;;;;;;1.50;0.85;;;;;;;18.68;69.63;97140.69;10370951;28;20034;-22
2022/06/28 02:57:08;;;;;;;2.35;0.80;;;;;;;18.67;69.95;97144.06;10368720;28;20404;-22
2022/06/28 03:02:08;;;;;;;2.28;0.80;;;;;;;18.67;70.07;97151.69;10369458;28;20057;-23
2022/06/28 03:07:09;;;;;;;2.67;0.90;;;;;;;18.68;70.44;97144.94;10379722;28;20033;-22
2022/06/28 03:12:09;;;;;;;1.48;0.93;;;;;;;18.72;70.27;97134.81;10369045;28;20285;-23
2022/06/28 03:17:10;;;;;;;3.47;0.98;;;;;;;18.69;69.92;97131.41;10366903;28;20554;-23
2022/06/28 03:22:10;;;;;;;1.67;1.07;;;;;;;18.68;69.73;97122.09;10367153;28;20099;-23
2022/06/28 03:27:10;;;;;;;1.50;0.70;;;;;;;18.62;70.05;97125.47;10368255;28;20292;-23
2022/06/28 03:32:11;;;;;;;1.52;1.10;;;;;;;18.66;70.15;97118.72;10383464;28;20289;-23
2022/06/28 03:37:12;;;;;;;1.60;0.98;;;;;;;18.63;70.23;97113.63;10383368;28;20086;-23
2022/06/28 03:42:17;;;;;;;2.70;1.00;;;;;;;18.56;70.39;97100.06;10366612;28;20034;-22
2022/06/28 03:47:20;;;;;;;0.90;0.82;;;;;;;18.68;70.09;97124.66;10380466;28;20504;-23
2022/06/28 03:52:29;;;;;;;2.17;0.80;;;;;;;18.60;70.31;97149.94;10408713;28;20042;-23
2022/06/28 03:57:59;;;;;;;2.50;0.98;;;;;;;18.59;70.42;97122.06;10376560;28;20038;-23
2022/06/28 04:03:00;;;;;;;0.83;0.67;;;;;;;18.62;70.22;97114.47;10447722;28;20029;-24
2022/06/28 04:08:12;;;;;;;2.00;1.00;;;;;;;18.72;69.68;97142.41;10383542;28;20316;-22
2022/06/28 04:13:21;;;;;;;2.92;0.90;;;;;;;18.71;69.69;97160.16;10367020;28;20409;-22
2022/06/28 04:18:21;;;;;;;2.78;1.13;;;;;;;18.68;69.87;97175.38;10366404;28;20053;-22
2022/06/28 04:23:41;;;;;;;1.63;1.10;;;;;;;18.66;69.74;97192.28;10366444;28;20073;-22
2022/06/28 04:28:41;;;;;;;0.85;0.82;;;;;;;18.67;69.78;97194.78;10365549;28;20030;-23
2022/06/28 04:33:47;;;;;;;3.38;0.88;;;;;;;18.63;69.92;97194.75;10364973;28;20508;-24
2022/06/28 04:38:49;;;;;;;2.00;1.08;;;;;;;18.54;70.35;97193.03;10394800;28;20041;-22
2022/06/28 04:43:56;;;;;;;2.17;1.02;;;;;;;18.41;70.70;97175.19;10380520;28;20033;-24
2022/06/28 04:49:01;;;;;;;1.10;0.85;;;;;;;18.64;70.60;97176.16;10365199;28;20057;-25
2022/06/28 04:54:28;;;;;;;2.13;1.30;;;;;;;19.24;68.44;97123.25;10367636;28;20077;-24
2022/06/28 04:59:49;;;;;;;6.25;1.80;;;;;;;19.57;67.27;97086.06;10417834;28;20049;-23
2022/06/28 05:05:08;;;;;;;5.95;1.73;;;;;;;19.76;66.60;97003.94;10429405;28;20033;-24
2022/06/28 05:10:10;;;;;;;3.47;1.00;;;;;;;19.81;66.21;97027.66;10371880;28;20581;-22
2022/06/28 05:15:18;;;;;;;4.65;1.50;;;;;;;19.83;65.91;97050.53;10371424;28;20040;-23
2022/06/28 05:20:35;;;;;;;6.65;1.00;;;;;;;19.80;65.53;97027.66;10372712;28;20033;-22
2022/06/28 05:25:36;;;;;;;2.35;1.27;;;;;;;19.81;65.29;97039.50;10371318;28;20029;-22
2022/06/28 05:30:36;;;;;;;13.53;1.43;;;;;;;19.91;66.36;97059.00;10371908;28;20097;-23
2022/06/28 05:35:37;;;;;;;2.00;0.73;;;;;;;19.89;66.13;97068.31;10380215;28;20292;-23
2022/06/28 05:40:37;;;;;;;2.20;0.93;;;;;;;19.91;65.96;97079.34;10393017;28;20468;-23
2022/06/28 05:45:38;;;;;;;2.50;0.93;;;;;;;19.91;65.84;97074.25;10370479;28;20038;-23
2022/06/28 05:50:38;;;;;;;2.85;1.00;;;;;;;20.00;65.76;97077.63;10390377;28;20322;-21
2022/06/28 05:55:39;;;;;;;1.40;0.95;;;;;;;20.12;65.52;97079.34;10412625;28;20036;-22
2022/06/28 06:00:40;;;;;;;1.83;0.75;;;;;;;20.10;65.33;97065.81;10386410;28;20045;-22
2022/06/28 06:05:40;;;;;;;0.90;0.60;;;;;;;20.07;65.60;97065.78;10398295;28;20527;-23
2022/06/28 06:10:42;;;;;;;2.15;0.98;;;;;;;20.03;65.97;97079.31;10370677;28;20113;-22
2022/06/28 06:15:42;;;;;;;1.23;0.80;;;;;;;19.99;65.48;97085.25;10368897;28;20072;-21
2022/06/28 06:20:42;;;;;;;1.67;0.80;;;;;;;20.05;65.62;97077.66;10370149;28;20029;-22
2022/06/28 06:25:43;;;;;;;2.70;0.70;;;;;;;20.04;65.67;97071.75;10368940;28;20038;-22
2022/06/28 06:30:43;;;;;;;0.93;0.60;;;;;;;20.03;65.74;97061.53;10370047;28;20034;-22
2022/06/28 06:35:50;;;;;;;;;;;;;;;20.06;65.60;97059.00;10379424;28;20300;-22
2022/06/28 06:40:51;;;;;;;0.98;0.75;;;;;;;20.03;65.79;97057.28;10384725;28;19918;-22
2022/06/28 06:45:53;;;;;;;1.30;0.80;;;;;;;20.19;65.91;97061.53;10377445;28;20057;-22
2022/06/28 06:50:54;;;;;;;1.67;1.38;;;;;;;20.26;65.84;97065.78;10375035;28;20026;-22
2022/06/28 06:55:55;;;;;;;0.90;0.73;;;;;;;20.18;65.32;97053.94;10409275;28;20427;-21
2022/06/28 07:00:57;;;;;;;0.60;0.60;;;;;;;20.14;65.68;97048.00;10375533;28;20034;-23
2022/06/28 07:05:57;;;;;;;0.70;0.65;;;;;;;20.10;65.42;97035.31;10382963;28;20022;-22
2022/06/28 07:10:59;;;;;;;1.58;0.63;;;;;;;20.13;65.52;97050.53;10369401;28;20034;-23
2022/06/28 07:16:01;;;;;;;2.20;0.70;;;;;;;20.12;65.76;97066.66;10367842;28;20378;-23
2022/06/28 07:21:01;;;;;;;1.05;0.70;;;;;;;20.13;65.68;97068.34;10384341;28;20538;-21
2022/06/28 07:26:02;;;;;;;0.68;0.60;;;;;;;20.14;65.51;97072.56;10368167;28;20030;-22
2022/06/28 07:31:02;;;;;;;0.80;0.60;;;;;;;20.12;65.38;97054.78;10367228;28;20112;-23
2022/06/28 07:36:03;;;;;;;0.43;0.43;;;;;;;20.13;65.45;97055.63;10367368;28;20045;-22
2022/06/28 07:41:03;;;;;;;1.30;0.85;;;;;;;20.31;65.51;97038.66;10367290;28;20366;-22
2022/06/28 07:46:23;;;;;;;0.70;0.70;;;;;;;20.34;65.08;97027.63;10367489;28;20038;-22
2022/06/28 07:56:43;;;;;;;0.77;0.73;;;;;;;20.19;65.38;97000.53;10405963;28;20039;-23
2022/06/28 08:01:45;;;;;;;1.38;0.63;;;;;;;20.21;65.17;97008.16;10407662;28;20037;-24
2022/06/28 08:06:53;;;;;;;0.60;0.60;;;;;;;20.18;65.62;97000.53;10388723;28;20026;-23
2022/06/28 08:11:56;;;;;;;1.20;0.50;;;;;;;20.18;65.51;97013.25;10365744;28;20440;-21
2022/06/28 08:16:56;;;;;;;0.65;0.60;;;;;;;20.18;65.49;96987.84;10365922;28;20048;-21
2022/06/28 08:21:57;;;;;;;1.48;1.02;;;;;;;20.16;65.66;96966.63;10366043;28;20037;-22
2022/06/28 08:26:58;;;;;;;0.55;0.50;;;;;;;20.18;65.28;96947.16;10365467;28;20084;-23
2022/06/28 08:32:00;;;;;;;1.23;0.63;;;;;;;20.32;65.49;96950.47;10365769;28;20034;-22
2022/06/28 08:37:00;;;;;;;1.13;0.90;;;;;;;20.42;65.25;96944.53;10377749;28;20301;-22
2022/06/28 08:42:03;;;;;;;0.43;0.33;;;;;;;20.33;64.92;96952.19;10372024;28;20033;-22
2022/06/28 08:47:04;;;;;;;0.63;0.63;;;;;;;20.26;65.09;96947.97;10374662;28;20277;-23
2022/06/28 08:52:08;;;;;;;0.63;0.57;;;;;;;20.25;65.38;96964.09;10389627;28;20650;-22
2022/06/28 08:57:08;;;;;;;0.52;0.52;;;;;;;20.23;65.27;96961.53;10411726;28;20041;-24
2022/06/28 09:02:12;;;;;;;0.60;0.60;;;;;;;20.22;65.14;96957.31;10374436;28;20049;-22
2022/06/28 09:07:13;;;;;;;0.68;0.60;;;;;;;20.23;65.27;96978.47;10395315;28;20079;-22
2022/06/28 09:12:13;;;;;;;0.82;0.60;;;;;;;20.23;65.36;96981.03;10373568;28;20034;-23
2022/06/28 09:17:23;;;;;;;0.80;0.53;;;;;;;20.22;65.47;96977.66;10373647;28;20547;-22
2022/06/28 09:22:30;;;;;;;1.00;0.77;;;;;;;20.30;65.37;96978.47;10373196;28;20289;-22
2022/06/28 09:27:34;;;;;;;0.75;0.75;;;;;;;20.44;64.98;96976.72;10374051;28;20038;-21
2022/06/28 09:32:36;;;;;;;0.40;0.40;;;;;;;20.42;64.85;96978.44;10373208;28;20033;-23
2022/06/28 09:37:45;;;;;;;0.50;0.50;;;;;;;20.32;65.07;96956.44;10382612;28;20457;-22
2022/06/28 09:43:03;;;;;;;0.45;0.45;;;;;;;20.29;65.04;96956.44;10372378;28;20500;-22
2022/06/28 09:48:05;;;;;;;0.50;0.50;;;;;;;20.27;65.28;96952.22;10372747;28;20030;-21
2022/06/28 09:53:06;;;;;;;0.45;0.45;;;;;;;20.25;65.30;96936.13;10394248;28;20043;-21
2022/06/28 09:58:07;;;;;;;0.50;0.50;;;;;;;20.25;65.21;96921.69;10401155;28;20038;-22
2022/06/28 10:03:08;;;;;;;0.77;0.60;;;;;;;20.25;65.21;96903.06;10371751;28;20034;-22
2022/06/28 10:08:09;;;;;;;1.15;1.05;;;;;;;20.26;65.32;96899.69;10388585;28;20404;-23
2022/06/28 10:18:29;;;;;;;1.77;0.80;;;;;;;20.44;65.31;96880.94;10371626;28;20096;-21
2022/06/28 10:23:40;;;;;;;1.35;0.80;;;;;;;20.51;65.09;96894.44;10370868;28;20501;-23
2022/06/28 10:28:43;;;;;;;0.50;0.50;;;;;;;20.40;64.86;96881.78;10371130;28;20046;-22
2022/06/28 10:33:43;;;;;;;0.77;0.60;;;;;;;20.33;64.96;96875.91;10370212;28;20037;-22
2022/06/28 10:39:09;;;;;;;0.50;0.50;;;;;;;20.31;65.12;96882.69;10385412;28;20034;-22
2022/06/28 10:44:14;;;;;;;0.82;0.63;;;;;;;20.29;65.21;96875.09;10369317;28;20038;-23
2022/06/28 10:49:14;;;;;;;2.75;0.77;;;;;;;20.29;65.00;96881.84;10370619;28;20030;-22
2022/06/28 10:54:16;;;;;;;0.77;0.60;;;;;;;20.28;65.32;96867.44;10379922;28;20481;-22
2022/06/28 10:59:18;;;;;;;0.50;0.50;;;;;;;20.29;65.26;96861.50;10370362;28;20026;-22
2022/06/28 11:04:19;;;;;;;0.80;0.50;;;;;;;20.30;65.28;96870.81;10375357;28;20049;-21
2022/06/28 11:09:36;;;;;;;2.67;0.88;;;;;;;20.42;66.26;96871.59;10370190;28;20034;-22
2022/06/28 11:14:49;;;;;;;1.00;0.80;;;;;;;20.54;66.11;96872.38;10368487;28;20037;-22
2022/06/28 11:19:53;;;;;;;1.08;0.63;;;;;;;20.45;65.07;96867.34;10369902;28;20095;-21
2022/06/28 11:24:57;;;;;;;1.10;0.60;;;;;;;20.39;65.26;96862.28;10368394;28;20049;-22
2022/06/28 11:30:02;;;;;;;0.55;0.40;;;;;;;20.37;65.25;96862.31;10369063;28;20514;-22
2022/06/28 11:35:07;;;;;;;1.25;0.75;;;;;;;20.32;65.34;96848.78;10369176;28;20033;-22
2022/06/28 11:40:08;;;;;;;0.98;0.65;;;;;;;20.32;65.41;96853.84;10368324;28;20030;-21
2022/06/28 11:45:11;;;;;;;0.60;0.50;;;;;;;20.32;65.42;96830.97;10367621;28;20037;-21
2022/06/28 11:50:13;;;;;;;1.13;0.50;;;;;;;20.32;65.34;96838.59;10368357;28;20037;-22
2022/06/28 11:55:14;;;;;;;1.98;0.75;;;;;;;20.30;65.42;96825.91;10369129;28;20038;-21
2022/06/28 12:00:17;;;;;;;1.10;1.00;;;;;;;20.29;65.93;96823.38;10367166;28;20030;-22
2022/06/28 12:05:34;;;;;;;6.72;1.23;;;;;;;20.54;65.67;96826.59;10377899;28;20481;-22
2022/06/28 12:10:35;;;;;;;9.90;1.40;;;;;;;20.55;65.00;96830.84;10367734;28;20096;-21
2022/06/28 12:15:36;;;;;;;22.00;1.70;;;;;;;20.40;65.37;96818.19;10365423;28;20096;-21
2022/06/28 12:20:53;;;;;;;5.40;0.95;;;;;;;20.28;65.17;96801.34;10367351;28;20092;-21
2022/06/28 12:26:00;;;;;;;2.85;0.70;;;;;;;20.38;65.20;96806.38;10366503;28;20118;-22
2022/06/28 12:31:00;;;;;;;6.70;0.98;;;;;;;20.35;65.63;96793.66;10367228;28;20590;-21
2022/06/28 12:36:01;;;;;;;2.70;0.63;;;;;;;20.34;65.20;96797.06;10377786;28;20084;-22
2022/06/28 12:41:01;;;;;;;4.70;0.90;;;;;;;20.35;65.35;96778.41;10407343;28;20057;-20
2022/06/28 12:46:02;;;;;;;2.33;0.60;;;;;;;20.34;65.42;96773.34;10371411;28;20463;-21
2022/06/28 12:51:02;;;;;;;2.00;1.63;;;;;;;20.36;65.42;96779.25;10372383;28;20030;-23
2022/06/28 12:56:03;;;;;;;4.20;1.40;;;;;;;20.52;66.07;96781.69;10406602;28;20044;-22
2022/06/28 13:01:04;;;;;;;6.70;1.30;;;;;;;20.63;65.76;96785.00;10371406;28;20100;-21
2022/06/28 13:06:05;;;;;;;1.30;0.68;;;;;;;20.49;64.73;96777.47;10375490;28;20034;-22
2022/06/28 13:11:06;;;;;;;3.50;0.85;;;;;;;20.43;64.93;96772.44;10366170;28;20476;-22
2022/06/28 13:16:06;;;;;;;0.87;0.60;;;;;;;20.36;65.25;96761.47;10365115;28;20042;-22
2022/06/28 13:21:07;;;;;;;2.10;0.55;;;;;;;20.38;65.30;96778.41;10365697;28;20053;-22
2022/06/28 13:26:07;;;;;;;0.80;0.70;;;;;;;20.37;65.28;96775.84;10367251;28;20088;-21
2022/06/28 13:31:08;;;;;;;0.87;0.50;;;;;;;20.36;65.41;96762.28;10373805;28;20186;-22
2022/06/28 13:36:08;;;;;;;1.52;0.63;;;;;;;20.37;65.48;96755.50;10384939;28;20029;-22
2022/06/28 13:41:10;;;;;;;1.08;0.90;;;;;;;20.37;65.38;96758.06;10374222;28;20072;-23
2022/06/28 13:46:10;;;;;;;2.75;1.15;;;;;;;20.45;65.76;96749.53;10372137;28;20488;-22
2022/06/28 13:51:11;;;;;;;1.70;1.00;;;;;;;20.60;65.81;96744.31;10379282;28;20045;-21
2022/06/28 13:56:11;;;;;;;1.20;0.80;;;;;;;20.59;64.76;96746.03;10412910;28;20116;-22
2022/06/28 14:01:12;;;;;;;0.60;0.40;;;;;;;20.46;65.15;96730.88;10376321;28;20034;-23
2022/06/28 14:06:13;;;;;;;0.50;0.50;;;;;;;20.40;65.28;96736.81;10389189;28;20331;-23
2022/06/28 14:11:13;;;;;;;0.50;0.50;;;;;;;20.38;65.14;96725.81;10371843;28;20033;-26
2022/06/28 14:16:14;;;;;;;0.50;0.47;;;;;;;20.38;65.12;96728.38;10371200;28;20411;-21
2022/06/28 14:21:14;;;;;;;0.63;0.63;;;;;;;20.37;65.16;96730.09;10371800;28;20448;-22
2022/06/28 14:26:15;;;;;;;0.85;0.60;;;;;;;20.36;64.86;96724.16;10370714;28;20084;-21
2022/06/28 14:31:15;;;;;;;0.50;0.47;;;;;;;20.36;65.27;96719.06;10370999;28;20038;-20
2022/06/28 14:36:16;;;;;;;1.83;1.10;;;;;;;20.36;65.62;96715.69;10371731;28;20046;-20
2022/06/28 14:41:17;;;;;;;3.33;1.83;;;;;;;20.58;65.73;96725.69;10370187;28;20365;-20
2022/06/28 14:46:17;;;;;;;4.53;1.43;;;;;;;20.66;65.77;96704.41;10371315;28;20100;-21
2022/06/28 14:51:17;;;;;;;0.97;0.83;;;;;;;20.53;64.79;96696.88;10382066;28;20124;-21
2022/06/28 14:56:18;;;;;;;1.00;0.80;;;;;;;20.46;65.11;96708.81;10413090;28;20038;-20
2022/06/28 15:01:18;;;;;;;1.43;0.60;;;;;;;20.42;64.95;96687.69;10375492;28;20087;-20
2022/06/28 15:06:20;;;;;;;2.60;0.77;;;;;;;20.30;65.02;96660.66;10386277;28;20297;-20
2022/06/28 15:11:20;;;;;;;5.18;0.70;;;;;;;20.38;65.45;96680.91;10371949;28;20034;-20
2022/06/28 15:16:20;;;;;;;2.27;0.50;;;;;;;20.37;65.28;96680.09;10371513;28;20404;-21
2022/06/28 15:31:58;;;;;;;5.15;1.63;;;;;;;20.45;65.58;96661.34;10371064;28;20496;-20
2022/06/28 15:36:58;;;;;;;5.43;1.70;;;;;;;20.65;65.32;96667.09;10376797;28;20042;-22
2022/06/28 15:42:01;;;;;;;4.07;1.10;;;;;;;20.63;64.67;96652.72;10370272;28;20049;-20
2022/06/28 15:47:01;;;;;;;1.63;0.60;;;;;;;20.48;64.81;96642.69;10370051;28;20033;-20
2022/06/28 15:52:02;;;;;;;1.17;0.60;;;;;;;20.43;65.11;96640.19;10370126;28;20050;-21
2022/06/28 15:57:02;;;;;;;0.77;0.57;;;;;;;20.42;65.13;96647.00;10368795;28;20739;-20
2022/06/28 16:02:02;;;;;;;3.00;0.68;;;;;;;20.39;64.96;96647.84;10368735;28;20633;-20
2022/06/28 16:07:03;;;;;;;1.38;0.75;;;;;;;20.38;65.30;96642.78;10398260;28;20040;-20
2022/06/28 16:17:23;;;;;;;3.42;0.88;;;;;;;20.38;65.22;96630.06;10366344;28;20037;-20
2022/06/28 16:22:23;;;;;;;15.47;2.33;;;;;;;20.39;65.33;96618.16;10366712;28;20056;-20
2022/06/28 16:27:24;;;;;;;22.73;3.45;;;;;;;20.62;66.40;96607.78;10366474;28;20448;-21
2022/06/28 16:32:24;;;;;;;5.30;1.30;;;;;;;20.68;65.46;96603.47;10366505;28;20033;-21
2022/06/28 16:37:25;;;;;;;5.13;0.88;;;;;;;20.54;64.82;96607.03;10389548;28;20061;-20
2022/06/28 16:42:26;;;;;;;7.05;0.90;;;;;;;20.46;64.82;96604.53;10400792;28;20112;-20
2022/06/28 16:47:26;;;;;;;2.97;0.82;;;;;;;20.44;65.30;96600.31;10366438;28;20038;-20
2022/06/28 16:52:26;;;;;;;2.73;0.80;;;;;;;20.42;65.23;96591.88;10382825;28;20072;-21
2022/06/28 16:57:27;;;;;;;4.77;0.83;;;;;;;20.42;65.30;96596.13;10393256;28;20038;-19
2022/06/28 17:02:28;;;;;;;7.95;0.60;;;;;;;20.41;65.24;96587.66;10370217;28;20057;-21
2022/06/28 17:07:28;;;;;;;4.53;0.88;;;;;;;20.37;65.37;96588.56;10406747;28;20045;-20
2022/06/28 17:12:31;;;;;;;5.72;0.77;;;;;;;20.39;65.44;96584.28;10441665;28;20034;-21
2022/06/28 17:17:31;;;;;;;8.90;1.92;;;;;;;20.46;65.86;96568.94;10373493;28;20492;-21
2022/06/28 17:22:32;;;;;;;11.10;2.77;;;;;;;20.70;67.08;96576.31;10372869;28;20096;-20
2022/06/28 17:27:32;;;;;;;4.53;0.75;;;;;;;20.60;64.93;96567.09;10373221;28;20040;-20
2022/06/28 17:32:33;;;;;;;4.93;1.00;;;;;;;20.55;65.03;96571.38;10405502;28;20095;-20
2022/06/28 17:37:34;;;;;;;2.40;0.80;;;;;;;20.53;64.93;96565.47;10393882;28;20078;-21
2022/06/28 17:42:34;;;;;;;3.27;0.73;;;;;;;20.50;65.04;96570.59;10373725;28;20044;-21
2022/06/28 17:47:34;;;;;;;1.90;0.93;;;;;;;20.34;65.03;96544.50;10434943;28;20093;-22
2022/06/28 17:52:35;;;;;;;4.30;0.70;;;;;;;20.48;65.05;96562.13;10430845;28;20079;-22
2022/06/28 17:57:38;;;;;;;3.20;0.80;;;;;;;20.45;64.96;96557.09;10432048;28;20378;-21
2022/06/28 18:02:38;;;;;;;5.28;1.10;;;;;;;20.48;65.32;96558.75;10432883;28;20108;-21
2022/06/28 18:07:39;;;;;;;9.97;1.80;;;;;;;20.52;66.06;96570.56;10430749;28;20394;-21
2022/06/28 18:12:40;;;;;;;10.52;2.38;;;;;;;20.72;66.72;96569.50;10428088;28;20123;-21
2022/06/28 18:17:41;;;;;;;4.72;1.60;;;;;;;20.68;64.98;96559.38;10422996;28;20500;-20
2022/06/28 18:22:41;;;;;;;3.03;0.70;;;;;;;20.58;64.79;96570.50;10396874;28;20037;-21
2022/06/28 18:27:42;;;;;;;4.87;1.20;;;;;;;20.47;65.58;96570.63;10370317;28;20045;-20
2022/06/28 18:32:43;;;;;;;6.47;1.20;;;;;;;20.52;65.20;96576.50;10370039;28;20040;-21
2022/06/28 18:37:44;;;;;;;1.60;0.77;;;;;;;20.36;65.24;96550.41;10375263;28;20520;-20
2022/06/28 18:42:44;;;;;;;1.27;0.70;;;;;;;20.50;65.31;96567.22;10369503;28;20065;-21
2022/06/28 18:47:45;;;;;;;1.40;0.60;;;;;;;20.49;65.02;96568.94;10370653;28;20030;-20
2022/06/28 18:52:46;;;;;;;2.60;0.90;;;;;;;20.50;65.27;96567.22;10372202;28;20037;-21
2022/06/28 18:57:46;;;;;;;2.63;0.60;;;;;;;20.48;64.85;96561.31;10370255;28;20128;-20
2022/06/28 19:02:47;;;;;;;5.67;2.17;;;;;;;20.70;67.03;96553.41;10369563;28;20669;-21
2022/06/28 19:07:47;;;;;;;2.70;1.43;;;;;;;20.71;65.18;96539.00;10378510;28;20424;-20
2022/06/28 19:12:47;;;;;;;1.80;0.87;;;;;;;20.63;64.83;96548.44;10369056;28;20034;-20
2022/06/28 19:17:48;;;;;;;1.40;0.90;;;;;;;20.57;64.86;96551.03;10369250;28;20612;-22
2022/06/28 19:22:48;;;;;;;4.30;1.00;;;;;;;20.53;64.92;96560.38;10367672;28;20033;-21
2022/06/28 19:27:48;;;;;;;1.97;0.80;;;;;;;20.51;65.04;96568.88;10368933;28;20030;-22
2022/06/28 19:32:49;;;;;;;1.50;0.90;;;;;;;20.52;65.08;96581.59;10368632;28;20042;-21
2022/06/28 19:37:51;;;;;;;1.30;0.77;;;;;;;20.51;65.16;96582.47;10381111;28;20383;-21
2022/06/28 19:42:51;;;;;;;1.08;0.75;;;;;;;20.50;64.83;96592.63;10393470;28;20034;-21
2022/06/28 19:47:51;;;;;;;3.20;0.50;;;;;;;20.49;65.35;96594.34;10368431;28;20042;-21
2022/06/28 19:52:52;;;;;;;6.77;2.27;;;;;;;20.66;66.99;96606.91;10377047;28;20034;-20
2022/06/28 19:57:52;;;;;;;8.23;3.00;;;;;;;20.79;66.47;96616.91;10404668;28;20044;-20
2022/06/28 20:02:52;;;;;;;1.17;0.90;;;;;;;20.66;64.79;96615.38;10407672;28;20047;-20
2022/06/28 20:07:53;;;;;;;2.27;0.70;;;;;;;20.59;64.99;96618.84;10406859;28;20026;-21
2022/06/28 20:12:53;;;;;;;1.70;0.80;;;;;;;20.56;64.88;96631.56;10406413;28;20042;-21
2022/06/28 20:17:54;;;;;;;8.40;1.75;;;;;;;20.54;66.25;96615.47;10408871;28;20168;-22
2022/06/28 20:22:55;;;;;;;2.80;1.80;;;;;;;20.17;69.88;96615.81;10406514;28;20033;-22
2022/06/28 20:27:56;;;;;;;2.50;1.60;;;;;;;20.08;70.65;96613.38;10402476;28;20495;-21
2022/06/28 20:32:58;;;;;;;2.05;1.70;;;;;;;20.04;71.12;96623.53;10406237;28;20028;-20
2022/06/28 20:37:58;;;;;;;2.78;1.77;;;;;;;19.97;71.56;96620.22;10403729;28;20026;-21
2022/06/28 20:42:58;;;;;;;3.03;1.70;;;;;;;19.98;71.85;96626.13;10395003;28;20037;-21
2022/06/28 20:47:59;;;;;;;3.00;1.70;;;;;;;19.91;71.99;96622.78;10365677;28;20064;-21
2022/06/28 20:52:59;;;;;;;4.05;2.35;;;;;;;19.85;72.62;96616.91;10376564;28;20547;-21
2022/06/28 20:58:00;;;;;;;5.30;2.30;;;;;;;19.79;72.77;96622.03;10367263;28;20064;-21
2022/06/28 21:03:00;;;;;;;4.70;2.00;;;;;;;19.77;72.82;96626.28;10366093;28;20045;-20
2022/06/28 21:08:00;;;;;;;2.73;2.10;;;;;;;19.76;72.98;96627.13;10383327;28;20479;-20
2022/06/28 21:13:01;;;;;;;3.43;2.07;;;;;;;19.76;72.67;96624.59;10365089;28;20292;-21
2022/06/28 21:18:01;;;;;;;6.73;2.30;;;;;;;19.65;72.89;96606.00;10366609;28;20045;-20
2022/06/28 21:23:01;;;;;;;2.30;2.00;;;;;;;19.68;72.57;96618.72;10365711;28;20034;-22
2022/06/28 21:28:02;;;;;;;3.40;2.20;;;;;;;19.66;73.00;96611.09;10366507;28;20038;-21
2022/06/28 21:33:03;;;;;;;5.50;2.40;;;;;;;19.63;73.09;96613.66;10366066;28;20697;-21
2022/06/28 21:38:04;;;;;;;3.47;1.70;;;;;;;19.64;72.48;96609.41;10378678;28;20516;-21
2022/06/28 21:43:06;;;;;;;3.42;2.20;;;;;;;19.61;72.99;96605.19;10365212;28;20038;-21
2022/06/28 21:48:06;;;;;;;7.45;3.85;;;;;;;19.64;72.73;96610.28;10368807;28;20484;-21
2022/06/28 21:53:07;;;;;;;2.65;2.20;;;;;;;19.66;72.82;96620.44;10395172;28;20033;-22
2022/06/28 21:58:08;;;;;;;4.50;2.65;;;;;;;19.61;73.04;96619.59;10402207;28;20500;-21
2022/06/28 22:03:10;;;;;;;5.68;3.10;;;;;;;19.59;72.98;96619.59;10371917;28;20044;-22
2022/06/28 22:08:11;;;;;;;5.15;2.60;;;;;;;19.57;73.22;96615.38;10396866;28;20029;-22
2022/06/28 22:13:11;;;;;;;3.50;2.53;;;;;;;19.55;73.30;96612.88;10370674;28;20030;-22
2022/06/28 22:18:12;;;;;;;3.83;2.20;;;;;;;19.64;72.15;96611.94;10371955;28;20034;-22
2022/06/28 22:23:12;;;;;;;4.70;2.67;;;;;;;19.56;72.70;96608.63;10370577;28;20045;-22
2022/06/28 22:28:12;;;;;;;3.70;2.57;;;;;;;19.61;72.25;96602.66;10371066;28;20125;-23
2022/06/28 22:33:13;;;;;;;4.37;2.17;;;;;;;19.66;71.45;96603.47;10370687;28;20095;-22
2022/06/28 22:38:13;;;;;;;3.75;2.45;;;;;;;19.64;71.69;96596.72;10376191;28;20044;-22
2022/06/28 22:43:14;;;;;;;5.87;2.60;;;;;;;19.68;71.53;96593.31;10369953;28;20092;-22
2022/06/28 22:48:14;;;;;;;2.47;2.27;;;;;;;19.58;72.03;96596.78;10371363;28;20026;-22
2022/06/28 22:53:15;;;;;;;3.22;2.13;;;;;;;19.51;72.30;96579.88;10378830;28;20524;-21
2022/06/28 22:58:15;;;;;;;3.40;2.50;;;;;;;19.51;72.49;96590.88;10369607;28;20053;-22
2022/06/28 23:03:15;;;;;;;3.00;2.30;;;;;;;19.43;72.97;96594.31;10369423;28;20404;-22
2022/06/28 23:08:16;;;;;;;4.80;2.30;;;;;;;19.42;72.94;96585.03;10407905;28;20396;-22
2022/06/28 23:13:16;;;;;;;3.00;2.28;;;;;;;19.37;72.71;96574.91;10383062;28;20068;-21
2022/06/28 23:18:17;;;;;;;2.50;2.30;;;;;;;19.38;72.67;96583.34;10369559;28;20348;-22
2022/06/28 23:23:17;;;;;;;22.17;2.90;;;;;;;19.41;72.31;96578.25;10368324;28;20116;-21
2022/06/28 23:28:18;;;;;;;5.87;4.13;;;;;;;19.38;72.32;96578.25;10368472;28;20038;-23
2022/06/28 23:33:19;;;;;;;3.47;2.80;;;;;;;19.36;72.14;96578.28;10368236;28;20277;-23
2022/06/28 23:38:19;;;;;;;2.97;2.47;;;;;;;19.32;72.48;96578.28;10375949;28;20030;-23
2022/06/28 23:43:19;;;;;;;5.03;2.97;;;;;;;19.37;72.15;96581.66;10367093;28;20292;-23
2022/06/28 23:48:21;;;;;;;6.27;3.27;;;;;;;19.37;71.99;96579.97;10368596;28;20034;-23
2022/06/28 23:53:21;;;;;;;3.25;2.72;;;;;;;19.38;71.51;96583.34;10371718;28;20081;-23
2022/06/28 23:58:23;;;;;;;4.13;3.07;;;;;;;19.39;71.95;96582.47;10368181;28;20312;-21
